createdAt,value
2022-12-13T00:02:00.256Z,100360.28
2022-12-13T00:04:28.155Z,100361.16
2022-12-13T00:06:55.854Z,100364.25
2022-12-13T00:09:23.642Z,100360.50
2022-12-13T00:11:51.273Z,100364.28
2022-12-13T00:14:18.767Z,100367.75
2022-12-13T00:16:47.997Z,100363.59
2022-12-13T00:19:16.452Z,100361.63
2022-12-13T00:21:44.185Z,100367.22
2022-12-13T00:24:12.213Z,100377.59
2022-12-13T00:26:39.844Z,100370.31
2022-12-13T00:29:08.285Z,100382.38
2022-12-13T00:32:00.452Z,100381.38
2022-12-13T00:34:24.882Z,100365.63
2022-12-13T00:36:54.814Z,100366.13
2022-12-13T00:39:22.569Z,100355.81
2022-12-13T00:41:50.663Z,100356.25
2022-12-13T00:44:20.044Z,100357.63
2022-12-13T00:46:47.837Z,100345.00
2022-12-13T00:49:15.826Z,100344.38
2022-12-13T00:51:43.938Z,100341.50
2022-12-13T00:54:11.857Z,100342.19
2022-12-13T00:56:39.480Z,100339.03
2022-12-13T00:59:07.369Z,100336.97
2022-12-13T01:01:36.811Z,100339.28
2022-12-13T01:04:06.089Z,100343.47
2022-12-13T01:06:45.871Z,100339.56
2022-12-13T01:09:22.240Z,100334.28
2022-12-13T01:11:50.685Z,100348.84
2022-12-13T01:14:19.071Z,100349.88
2022-12-13T01:16:46.685Z,100348.78
2022-12-13T01:19:14.314Z,100348.88
2022-12-13T01:21:41.913Z,100350.56
2022-12-13T01:24:09.567Z,100343.88
2022-12-13T01:26:37.164Z,100345.03
2022-12-13T01:29:05.923Z,100353.38
2022-12-13T01:31:33.871Z,100348.09
2022-12-13T01:34:10.787Z,100340.50
2022-12-13T01:36:40.103Z,100338.03
2022-12-13T01:39:14.756Z,100318.34
2022-12-13T01:41:44.852Z,100307.47
2022-12-13T01:44:49.852Z,100302.28
2022-12-13T01:47:22.945Z,100291.88
2022-12-13T01:49:54.612Z,100295.19
2022-12-13T01:52:22.693Z,100289.06
2022-12-13T01:54:55.673Z,100296.75
2022-12-13T01:57:33.212Z,100285.84
2022-12-13T02:00:01.541Z,100286.22
2022-12-13T02:02:29.803Z,100277.25
2022-12-13T02:05:11.812Z,100282.97
2022-12-13T02:07:42.491Z,100282.13
2022-12-13T02:10:11.236Z,100278.06
2022-12-13T02:12:40.306Z,100282.03
2022-12-13T02:15:17.113Z,100279.59
2022-12-13T02:18:03.604Z,100292.88
2022-12-13T02:20:49.158Z,100291.28
2022-12-13T02:23:28.746Z,100283.75
2022-12-13T02:25:56.323Z,100291.94
2022-12-13T02:29:02.031Z,100288.94
2022-12-13T02:31:47.634Z,100281.69
2022-12-13T02:34:44.844Z,100278.53
2022-12-13T02:37:25.410Z,100268.47
2022-12-13T02:40:05.477Z,100266.88
2022-12-13T02:42:49.414Z,100260.56
2022-12-13T02:45:39.046Z,100254.53
2022-12-13T02:48:10.471Z,100253.75
2022-12-13T02:50:39.881Z,100266.50
2022-12-13T02:53:09.855Z,100271.34
2022-12-13T02:55:40.899Z,100265.19
2022-12-13T02:58:13.860Z,100266.19
2022-12-13T03:01:28.425Z,100264.34
2022-12-13T03:04:24.824Z,100259.34
2022-12-13T03:07:12.497Z,100263.22
2022-12-13T03:10:08.522Z,100263.66
2022-12-13T03:12:57.260Z,100258.50
2022-12-13T03:15:34.586Z,100257.13
2022-12-13T03:18:15.805Z,100244.75
2022-12-13T03:20:48.794Z,100256.88
2022-12-13T03:23:18.178Z,100252.00
2022-12-13T03:25:49.955Z,100244.19
2022-12-13T03:28:17.848Z,100241.72
2022-12-13T03:30:45.813Z,100241.09
2022-12-13T03:33:13.784Z,100237.09
2022-12-13T03:35:44.746Z,100236.13
2022-12-13T03:38:22.614Z,100242.06
2022-12-13T03:40:54.234Z,100238.66
2022-12-13T03:43:23.062Z,100245.00
2022-12-13T03:45:52.245Z,100245.38
2022-12-13T03:48:22.153Z,100242.63
2022-12-13T03:50:52.495Z,100248.03
2022-12-13T03:53:32.183Z,100245.69
2022-12-13T03:56:06.569Z,100243.38
2022-12-13T03:58:37.689Z,100228.44
2022-12-13T04:01:11.246Z,100227.47
2022-12-13T04:03:40.243Z,100228.75
2022-12-13T04:06:08.410Z,100241.09
2022-12-13T04:08:37.433Z,100231.19
2022-12-13T04:11:25.853Z,100227.94
2022-12-13T04:13:54.676Z,100227.81
2022-12-13T04:16:23.603Z,100233.28
2022-12-13T04:18:51.491Z,100238.25
2022-12-13T04:21:19.150Z,100232.16
2022-12-13T04:23:46.792Z,100234.63
2022-12-13T04:26:14.383Z,100231.69
2022-12-13T04:28:42.019Z,100223.56
2022-12-13T04:31:09.723Z,100228.75
2022-12-13T04:33:37.353Z,100226.72
2022-12-13T04:36:05.176Z,100233.00
2022-12-13T04:38:32.852Z,100228.44
2022-12-13T04:41:16.491Z,100250.72
2022-12-13T04:43:44.320Z,100237.63
2022-12-13T04:46:12.386Z,100239.06
2022-12-13T04:48:39.980Z,100237.41
2022-12-13T04:51:07.673Z,100252.28
2022-12-13T04:53:35.316Z,100246.84
2022-12-13T04:56:05.051Z,100243.28
2022-12-13T04:58:32.747Z,100247.00
2022-12-13T05:01:01.382Z,100235.88
2022-12-13T05:03:29.228Z,100232.09
2022-12-13T05:05:57.062Z,100233.75
2022-12-13T05:08:24.675Z,100236.06
2022-12-13T05:10:54.204Z,100241.72
2022-12-13T05:13:21.666Z,100245.50
2022-12-13T05:15:57.593Z,100245.88
2022-12-13T05:18:25.082Z,100249.03
2022-12-13T05:20:53.275Z,100241.19
2022-12-13T05:23:23.890Z,100245.16
2022-12-13T05:25:52.640Z,100238.19
2022-12-13T05:28:27.693Z,100234.69
2022-12-13T05:30:59.210Z,100238.66
2022-12-13T05:33:27.404Z,100249.50
2022-12-13T05:36:00.033Z,100244.94
2022-12-13T05:38:30.100Z,100237.47
2022-12-13T05:40:58.458Z,100242.81
2022-12-13T05:43:42.254Z,100241.03
2022-12-13T05:46:16.664Z,100241.06
2022-12-13T05:48:44.846Z,100239.41
2022-12-13T05:51:12.398Z,100241.97
2022-12-13T05:53:41.785Z,100238.66
2022-12-13T05:56:11.484Z,100242.72
2022-12-13T05:58:40.299Z,100238.25
2022-12-13T06:01:13.025Z,100236.63
2022-12-13T06:03:42.050Z,100234.81
2022-12-13T06:06:11.757Z,100226.53
2022-12-13T06:08:40.415Z,100246.47
2022-12-13T06:11:10.838Z,100235.31
2022-12-13T06:14:22.799Z,100242.56
2022-12-13T06:16:52.712Z,100231.91
2022-12-13T06:19:26.277Z,100240.72
2022-12-13T06:21:55.266Z,100242.00
2022-12-13T06:24:24.170Z,100235.25
2022-12-13T06:26:52.215Z,100229.09
2022-12-13T06:29:24.167Z,100237.09
2022-12-13T06:32:01.180Z,100237.25
2022-12-13T06:34:33.820Z,100235.53
2022-12-13T06:37:04.815Z,100244.06
2022-12-13T06:39:33.749Z,100242.44
2022-12-13T06:42:03.137Z,100250.34
2022-12-13T06:44:30.909Z,100247.75
2022-12-13T06:47:11.492Z,100250.66
2022-12-13T06:49:44.238Z,100263.06
2022-12-13T06:52:14.249Z,100252.09
2022-12-13T06:54:43.210Z,100249.16
2022-12-13T06:57:12.500Z,100252.56
2022-12-13T06:59:40.985Z,100254.50
2022-12-13T07:02:15.465Z,100255.22
2022-12-13T07:04:53.938Z,100255.25
2022-12-13T07:07:21.826Z,100265.66
2022-12-13T07:09:49.449Z,100259.59
2022-12-13T07:12:16.973Z,100259.44
2022-12-13T07:14:44.562Z,100266.28
2022-12-13T07:17:12.184Z,100260.75
2022-12-13T07:19:40.289Z,100264.31
2022-12-13T07:22:07.901Z,100269.69
2022-12-13T07:24:35.492Z,100267.50
2022-12-13T07:27:03.798Z,100278.59
2022-12-13T07:29:31.692Z,100270.03
2022-12-13T07:32:01.152Z,100280.09
2022-12-13T07:34:30.696Z,100275.69
2022-12-13T07:36:58.447Z,100282.31
2022-12-13T07:39:26.636Z,100282.81
2022-12-13T07:41:57.394Z,100285.34
2022-12-13T07:44:25.363Z,100283.72
2022-12-13T07:46:53.154Z,100284.75
2022-12-13T07:49:20.716Z,100285.94
2022-12-13T07:51:49.233Z,100289.41
2022-12-13T07:54:17.065Z,100286.03
2022-12-13T07:56:46.016Z,100290.72
2022-12-13T07:59:13.879Z,100290.34
2022-12-13T08:01:41.514Z,100298.44
2022-12-13T08:04:10.185Z,100300.63
2022-12-13T08:06:38.315Z,100302.69
2022-12-13T08:09:06.329Z,100301.69
2022-12-13T08:11:34.688Z,100302.31
2022-12-13T08:14:02.499Z,100301.09
2022-12-13T08:16:30.417Z,100307.16
2022-12-13T08:19:02.795Z,100302.56
2022-12-13T08:21:55.718Z,100308.28
2022-12-13T08:24:28.979Z,100304.72
2022-12-13T08:27:03.261Z,100303.25
2022-12-13T08:29:35.302Z,100304.25
2022-12-13T08:32:07.265Z,100312.72
2022-12-13T08:34:35.172Z,100304.72
2022-12-13T08:37:04.329Z,100309.38
2022-12-13T08:39:35.645Z,100309.06
2022-12-13T08:42:15.796Z,100311.44
2022-12-13T08:44:47.785Z,100312.22
2022-12-13T08:47:22.916Z,100319.31
2022-12-13T08:49:55.069Z,100312.00
2022-12-13T08:52:24.044Z,100313.47
2022-12-13T08:54:51.792Z,100322.19
2022-12-13T08:57:19.728Z,100320.69
2022-12-13T08:59:47.702Z,100328.69
2022-12-13T09:02:16.459Z,100330.72
2022-12-13T09:05:09.173Z,100337.84
2022-12-13T09:07:39.594Z,100337.50
2022-12-13T09:10:26.790Z,100335.56
2022-12-13T09:13:01.337Z,100338.25
2022-12-13T09:15:34.705Z,100334.78
2022-12-13T09:18:04.824Z,100341.63
2022-12-13T09:20:41.058Z,100337.03
2022-12-13T09:23:13.578Z,100337.94
2022-12-13T09:26:04.888Z,100334.19
2022-12-13T09:28:35.471Z,100342.00
2022-12-13T09:31:14.576Z,100352.34
2022-12-13T09:33:42.796Z,100338.03
2022-12-13T09:36:13.348Z,100344.22
2022-12-13T09:38:40.951Z,100354.31
2022-12-13T09:41:43.781Z,100352.69
2022-12-13T09:44:32.234Z,100349.53
2022-12-13T09:47:13.433Z,100342.72
2022-12-13T09:49:52.555Z,100354.16
2022-12-13T09:52:25.266Z,100357.88
2022-12-13T09:54:56.041Z,100352.09
2022-12-13T09:57:33.250Z,100346.78
2022-12-13T10:00:08.572Z,100352.75
2022-12-13T10:03:12.813Z,100348.50
2022-12-13T10:05:45.282Z,100358.16
2022-12-13T10:08:16.439Z,100345.09
2022-12-13T10:10:44.607Z,100354.88
2022-12-13T10:13:34.708Z,100354.06
2022-12-13T10:16:12.219Z,100360.94
2022-12-13T10:18:43.773Z,100368.97
2022-12-13T10:21:43.070Z,100366.34
2022-12-13T10:24:28.962Z,100363.44
2022-12-13T10:27:15.460Z,100355.06
2022-12-13T10:30:08.624Z,100348.63
2022-12-13T10:32:56.621Z,100350.50
2022-12-13T10:35:30.526Z,100340.34
2022-12-13T10:38:20.979Z,100347.31
2022-12-13T10:40:49.330Z,100338.97
2022-12-13T10:43:20.497Z,100334.31
2022-12-13T10:45:58.808Z,100325.22
2022-12-13T10:48:49.442Z,100325.00
2022-12-13T10:51:20.222Z,100311.06
2022-12-13T10:54:00.829Z,100310.19
2022-12-13T10:56:45.838Z,100309.53
2022-12-13T10:59:21.169Z,100311.84
2022-12-13T11:01:49.105Z,100305.47
2022-12-13T11:04:34.094Z,100299.22
2022-12-13T11:07:22.984Z,100298.88
2022-12-13T11:09:52.809Z,100291.78
2022-12-13T11:12:24.777Z,100292.88
2022-12-13T11:15:02.056Z,100292.22
2022-12-13T11:17:35.080Z,100297.22
2022-12-13T11:20:06.229Z,100297.47
2022-12-13T11:22:38.889Z,100288.19
2022-12-13T11:25:15.795Z,100284.13
2022-12-13T11:28:02.159Z,100291.25
2022-12-13T11:31:01.256Z,100282.16
2022-12-13T11:33:52.205Z,100274.66
2022-12-13T11:36:50.198Z,100282.66
2022-12-13T11:39:21.575Z,100279.38
2022-12-13T11:41:59.562Z,100273.88
2022-12-13T11:44:44.366Z,100271.53
2022-12-13T11:47:22.487Z,100263.56
2022-12-13T11:49:50.268Z,100263.88
2022-12-13T11:52:45.053Z,100267.19
2022-12-13T11:55:46.393Z,100256.56
2022-12-13T11:59:08.569Z,100254.66
2022-12-13T12:02:07.521Z,100257.84
2022-12-13T12:04:59.626Z,100268.53
2022-12-13T12:07:48.285Z,100262.22
2022-12-13T12:10:49.772Z,100260.97
2022-12-13T12:13:23.615Z,100255.31
2022-12-13T12:15:59.234Z,100249.38
2022-12-13T12:18:27.276Z,100245.22
2022-12-13T12:21:23.090Z,100253.59
2022-12-13T12:23:58.525Z,100240.91
2022-12-13T12:27:12.992Z,100248.72
2022-12-13T12:29:52.633Z,100246.19
2022-12-13T12:32:20.239Z,100237.34
2022-12-13T12:34:55.753Z,100237.31
2022-12-13T12:37:34.015Z,100238.31
2022-12-13T12:43:35.588Z,100229.47
2022-12-13T12:47:01.599Z,100227.94
2022-12-13T12:49:40.829Z,100220.19
2022-12-13T12:52:26.726Z,100221.06
2022-12-13T12:55:12.853Z,100221.84
2022-12-13T12:58:08.624Z,100211.28
2022-12-13T13:01:02.330Z,100203.25
2022-12-13T13:03:36.539Z,100213.88
2022-12-13T13:06:29.241Z,100217.47
2022-12-13T13:09:09.531Z,100212.50
2022-12-13T13:11:45.196Z,100214.81
2022-12-13T13:14:37.335Z,100215.34
2022-12-13T13:17:17.002Z,100225.03
2022-12-13T13:19:47.875Z,100222.91
2022-12-13T13:22:43.263Z,100227.94
2022-12-13T13:26:00.316Z,100230.50
2022-12-13T13:28:27.267Z,100242.16
2022-12-13T13:31:08.298Z,100242.06
2022-12-13T13:33:46.026Z,100234.56
2022-12-13T13:36:41.874Z,100240.75
2022-12-13T13:39:19.333Z,100246.34
2022-12-13T13:41:49.774Z,100244.38
2022-12-13T13:44:55.195Z,100240.50
2022-12-13T13:47:22.882Z,100242.13
2022-12-13T13:50:01.617Z,100241.75
2022-12-13T13:52:44.474Z,100228.91
2022-12-13T13:55:23.155Z,100233.56
2022-12-13T13:58:22.189Z,100240.09
2022-12-13T14:01:14.547Z,100239.75
2022-12-13T14:04:04.126Z,100236.50
2022-12-13T14:07:09.511Z,100241.09
2022-12-13T14:10:07.897Z,100240.16
2022-12-13T14:13:13.789Z,100236.53
2022-12-13T14:16:00.594Z,100241.88
2022-12-13T14:19:05.239Z,100239.75
2022-12-13T14:21:46.678Z,100236.91
2022-12-13T14:24:22.987Z,100231.88
2022-12-13T14:27:14.225Z,100237.81
2022-12-13T14:29:48.337Z,100221.66
2022-12-13T14:32:37.065Z,100212.56
2022-12-13T14:41:32.516Z,100217.56
2022-12-13T14:44:21.319Z,100205.69
2022-12-13T14:46:55.720Z,100204.28
2022-12-13T14:53:55.066Z,100196.31
2022-12-13T14:57:17.856Z,100199.88
2022-12-13T14:59:51.079Z,100193.00
2022-12-13T15:02:31.031Z,100204.81
2022-12-13T15:05:04.030Z,100215.25
2022-12-13T15:07:36.647Z,100221.97
2022-12-13T15:10:30.152Z,100222.88
2022-12-13T15:12:57.815Z,100219.63
2022-12-13T15:15:37.509Z,100215.31
2022-12-13T15:18:26.180Z,100219.75
2022-12-13T15:21:03.724Z,100218.75
2022-12-13T15:23:59.910Z,100219.59
2022-12-13T15:26:40.720Z,100222.97
2022-12-13T15:29:10.185Z,100233.44
2022-12-13T15:31:40.632Z,100228.56
2022-12-13T15:34:30.965Z,100238.38
2022-12-13T15:37:02.071Z,100235.63
2022-12-13T15:39:31.350Z,100243.59
2022-12-13T15:41:59.644Z,100245.25
2022-12-13T15:44:48.106Z,100239.09
2022-12-13T15:47:38.155Z,100229.50
2022-12-13T15:51:11.787Z,100236.06
2022-12-13T15:58:36.323Z,100241.19
2022-12-13T16:08:45.853Z,100247.38
2022-12-13T16:11:51.704Z,100246.47
2022-12-13T16:14:31.630Z,100259.66
2022-12-13T16:17:22.686Z,100256.13
2022-12-13T16:19:51.772Z,100248.13
2022-12-13T16:22:21.824Z,100257.00
2022-12-13T16:24:50.774Z,100253.66
2022-12-13T16:27:18.433Z,100248.44
2022-12-13T16:29:46.013Z,100240.88
2022-12-13T16:32:13.615Z,100238.84
2022-12-13T16:34:41.306Z,100234.41
2022-12-13T16:37:26.041Z,100240.38
2022-12-13T16:39:55.061Z,100237.03
2022-12-13T16:42:25.967Z,100232.66
2022-12-13T16:45:40.642Z,100238.94
2022-12-13T16:47:49.163Z,100244.91
2022-12-13T16:50:45.889Z,100239.56
2022-12-13T16:53:17.508Z,100239.84
2022-12-13T16:55:46.559Z,100243.75
2022-12-13T16:58:26.468Z,100243.25
2022-12-13T17:00:58.844Z,100238.75
2022-12-13T17:03:27.733Z,100230.72
2022-12-13T17:05:58.713Z,100242.13
2022-12-13T17:08:26.626Z,100240.34
2022-12-13T17:10:57.732Z,100233.97
2022-12-13T17:13:27.183Z,100237.81
2022-12-13T17:15:59.118Z,100235.22
2022-12-13T17:18:28.475Z,100249.06
2022-12-13T17:20:58.232Z,100249.03
2022-12-13T17:23:27.550Z,100250.84
2022-12-13T17:25:58.677Z,100251.81
2022-12-13T17:28:26.361Z,100242.34
2022-12-13T17:30:54.568Z,100242.09
2022-12-13T17:33:22.907Z,100245.34
2022-12-13T17:35:51.509Z,100236.91
2022-12-13T17:38:19.038Z,100232.69
2022-12-13T17:40:54.335Z,100235.16
2022-12-13T17:43:33.005Z,100229.09
2022-12-13T17:46:08.636Z,100224.91
2022-12-13T17:48:40.692Z,100223.06
2022-12-13T17:51:10.514Z,100226.31
2022-12-13T17:53:56.223Z,100235.03
2022-12-13T17:56:23.757Z,100228.78
2022-12-13T17:58:51.203Z,100238.13
2022-12-13T18:01:21.844Z,100223.81
2022-12-13T18:03:52.536Z,100221.06
2022-12-13T18:06:20.166Z,100212.19
2022-12-13T18:08:48.285Z,100211.78
2022-12-13T18:11:34.429Z,100202.44
2022-12-13T18:14:04.518Z,100209.50
2022-12-13T18:16:36.834Z,100203.41
2022-12-13T18:19:09.150Z,100211.94
2022-12-13T18:21:37.368Z,100201.28
2022-12-13T18:24:06.433Z,100205.88
2022-12-13T18:26:34.500Z,100215.81
2022-12-13T18:29:02.944Z,100219.22
2022-12-13T18:31:30.636Z,100210.53
2022-12-13T18:33:58.339Z,100220.06
2022-12-13T18:36:26.311Z,100220.16
2022-12-13T18:38:54.099Z,100215.63
2022-12-13T18:41:28.298Z,100204.44
2022-12-13T18:43:59.380Z,100201.28
2022-12-13T18:46:29.545Z,100207.78
2022-12-13T18:48:57.893Z,100203.94
2022-12-13T18:51:26.217Z,100204.59
2022-12-13T18:53:54.974Z,100212.31
2022-12-13T18:56:23.278Z,100217.41
2022-12-13T18:58:51.287Z,100216.72
2022-12-13T19:01:20.349Z,100208.22
2022-12-13T19:03:48.721Z,100219.38
2022-12-13T19:06:24.770Z,100225.56
2022-12-13T19:08:54.781Z,100220.63
2022-12-13T19:11:23.467Z,100214.50
2022-12-13T19:13:50.926Z,100211.97
2022-12-13T19:16:21.275Z,100215.06
2022-12-13T19:18:49.347Z,100216.72
2022-12-13T19:21:19.926Z,100216.47
2022-12-13T19:23:55.034Z,100205.09
2022-12-13T19:26:25.945Z,100203.88
2022-12-13T19:28:54.793Z,100205.56
2022-12-13T19:31:27.082Z,100209.50
2022-12-13T19:33:59.485Z,100206.31
2022-12-13T19:36:27.020Z,100202.41
2022-12-13T19:38:58.004Z,100204.09
2022-12-13T19:41:26.377Z,100207.53
2022-12-13T19:43:54.203Z,100213.97
2022-12-13T19:46:22.166Z,100216.16
2022-12-13T19:48:49.916Z,100220.44
2022-12-13T19:51:17.974Z,100229.25
2022-12-13T19:53:45.704Z,100226.84
2022-12-13T19:56:17.630Z,100232.50
2022-12-13T19:58:46.984Z,100220.28
2022-12-13T20:01:15.751Z,100227.25
2022-12-13T20:03:47.882Z,100222.63
2022-12-13T20:06:19.283Z,100220.00
2022-12-13T20:08:47.031Z,100219.50
2022-12-13T20:11:19.485Z,100221.53
2022-12-13T20:13:48.466Z,100214.41
2022-12-13T20:16:22.296Z,100210.88
2022-12-13T20:18:57.691Z,100211.53
2022-12-13T20:21:26.282Z,100213.53
2022-12-13T20:23:54.381Z,100213.72
2022-12-13T20:26:27.235Z,100216.31
2022-12-13T20:28:56.139Z,100227.66
2022-12-13T20:31:42.693Z,100229.09
2022-12-13T20:34:16.273Z,100234.34
2022-12-13T20:36:43.814Z,100233.41
2022-12-13T20:39:14.636Z,100227.47
2022-12-13T20:41:42.886Z,100228.91
2022-12-13T20:44:12.741Z,100225.38
2022-12-13T20:47:05.893Z,100222.00
2022-12-13T20:49:33.722Z,100217.00
2022-12-13T20:52:01.390Z,100224.78
2022-12-13T20:54:29.061Z,100232.34
2022-12-13T20:56:56.675Z,100230.56
2022-12-13T20:59:24.297Z,100227.50
2022-12-13T21:01:52.897Z,100231.09
2022-12-13T21:04:23.058Z,100227.72
2022-12-13T21:06:52.551Z,100218.44
2022-12-13T21:09:20.641Z,100231.31
2022-12-13T21:11:49.031Z,100218.09
2022-12-13T21:14:22.405Z,100225.63
2022-12-13T21:16:57.608Z,100222.72
2022-12-13T21:19:36.115Z,100232.91
2022-12-13T21:22:07.422Z,100225.97
2022-12-13T21:24:35.018Z,100218.34
2022-12-13T21:27:02.681Z,100219.47
2022-12-13T21:29:30.176Z,100220.91
2022-12-13T21:31:57.842Z,100199.88
2022-12-13T21:34:25.384Z,100213.06
2022-12-13T21:36:53.158Z,100209.75
2022-12-13T21:39:28.325Z,100208.06
2022-12-13T21:41:56.284Z,100209.56
2022-12-13T21:44:24.141Z,100200.97
2022-12-13T21:47:11.920Z,100210.53
2022-12-13T21:49:40.279Z,100204.28
2022-12-13T21:52:07.735Z,100199.72
2022-12-13T21:54:35.307Z,100206.59
2022-12-13T21:57:21.807Z,100192.00
2022-12-13T21:59:49.381Z,100206.44
2022-12-13T22:02:19.085Z,100206.56
2022-12-13T22:04:48.214Z,100218.97
2022-12-13T22:07:21.892Z,100207.41
2022-12-13T22:09:50.271Z,100211.06
2022-12-13T22:12:18.121Z,100216.06
2022-12-13T22:14:46.795Z,100213.28
2022-12-13T22:17:14.810Z,100199.03
2022-12-13T22:19:42.390Z,100205.13
2022-12-13T22:22:11.058Z,100213.16
2022-12-13T22:24:38.608Z,100216.59
2022-12-13T22:27:06.129Z,100222.88
2022-12-13T22:29:33.737Z,100231.78
2022-12-13T22:32:01.385Z,100226.06
2022-12-13T22:34:29.530Z,100220.69
2022-12-13T22:36:57.257Z,100217.34
2022-12-13T22:39:24.802Z,100218.53
2022-12-13T22:41:52.957Z,100216.44
2022-12-13T22:44:20.877Z,100219.34
2022-12-13T22:46:48.452Z,100212.25
2022-12-13T22:49:16.173Z,100208.56
2022-12-13T22:51:43.832Z,100202.00
2022-12-13T22:54:11.483Z,100201.84
2022-12-13T22:56:39.250Z,100202.75
2022-12-13T22:59:09.993Z,100199.72
2022-12-13T23:01:40.675Z,100179.56
2022-12-13T23:04:08.473Z,100180.78
2022-12-13T23:07:05.768Z,100175.44
2022-12-13T23:09:36.530Z,100166.94
2022-12-13T23:12:23.270Z,100160.16
2022-12-13T23:14:51.661Z,100156.63
2022-12-13T23:17:19.480Z,100152.47
2022-12-13T23:19:53.392Z,100142.28
2022-12-13T23:22:25.768Z,100149.44
2022-12-13T23:24:53.787Z,100137.53
2022-12-13T23:27:23.533Z,100128.16
2022-12-13T23:29:51.152Z,100130.94
2022-12-13T23:32:18.836Z,100123.97
2022-12-13T23:34:46.316Z,100118.19
2022-12-13T23:37:22.420Z,100115.44
2022-12-13T23:39:53.405Z,100108.44
2022-12-13T23:42:20.941Z,100108.22
2022-12-13T23:44:48.422Z,100114.31
2022-12-13T23:47:18.056Z,100114.19
2022-12-13T23:49:45.652Z,100107.38
2022-12-13T23:52:16.147Z,100098.06
2022-12-13T23:54:43.829Z,100106.50
2022-12-13T23:57:11.391Z,100108.31
2022-12-13T23:59:38.971Z,100103.63
